ウィーン の空港の天気 - METARとTAF

ウィーン国際空港 ( LOWW / VIE ) - オーストリア ウィーン
飛行場実況気象(Metar)
観測時間10/20 06:20 CEST (10/20 04:20 UTC)
風向・風速不定 1m/s
視程2200m
天気現象もや
少しの雲 雲底高度 不明
全天の4割程度の雲 雲底高度 30m
全天の8割程度の雲 雲底高度 60m
気温11℃
湿度94%
気圧1013hPa
METARLOWW 200420Z VRB02KT 2200 BR FEW000 SCT001 BKN002 11/10 Q1013 TEMPO 1400 BKN001
過去の天気等 Google飛行場航空写真 Wunderground天気予報

過去48時間のMETAR

飛行場予報(TAF)
発表時間: 10/20 04:15 CEST (10/20 02:15 UTC)
予報対象時間: 20日5時 CEST ~ 21日11時 CEST
風向・風速不定 1m/s
視程1500m
天気現象散在した霧
全天の4割程度の雲 雲底高度 60m
全天を覆う雲 雲底高度 90m
20日5時 CEST ~ 20日10時 CEST に一時的に
視程400m
天気現象
全天を覆う雲 鉛直視程 30m
20日10時 CEST ~ 20日12時 CEST に徐々に
視程4000m
天気現象もや
全天の4割程度の雲 雲底高度 60m
全天の8割程度の雲 雲底高度 180m
20日15時 CEST ~ 20日17時 CEST に徐々に
視程8000m
天気現象運行に影響にある天気現象が終了
少しの雲 雲底高度 1070m
20日19時 CEST ~ 20日21時 CEST に徐々に
視程4000m
天気現象もや
少しの雲 雲底高度 150m
21日0時 CEST ~ 21日2時 CEST に徐々に
視程1200m
天気現象散在した霧
全天の4割程度の雲 雲底高度 30m
21日2時 CEST ~ 21日10時 CEST に一時的に
視程400m
天気現象
全天を覆う雲 鉛直視程 30m
TAF LOWW 200215Z 2003/2109 VRB02KT 1500 BCFG SCT002 OVC003 TX18/2014Z TN09/2102Z
TEMPO 2003/2008 0400 FG VV001
BECMG 2008/2010 4000 BR SCT002 BKN006
BECMG 2013/2015 8000 NSW FEW035
BECMG 2017/2019 4000 BR FEW005
BECMG 2022/2024 1200 BCFG SCT001
TEMPO 2100/2108 0400 FG VV001